Time;durP1;ratioP1;P1;durP2;ratioP2;P2;SDS_P1;SDS_P2;PMS_P1;PMS_P2;Temp;Humidity;BMP_temperature;BMP_pressure;BME280_temperature;BME280_humidity;BME280_pressure;Samples;Min_cycle;Max_cycle;Signal;HPM_P1;HPM_P2
2021/03/07 00:00:31;;;;;;;;;;;6.60;99.90;;;;;;5091692;28;19904;-91
2021/03/07 00:02:57;;;;;;;;;;;6.70;99.90;;;;;;5093212;28;19927;-91
2021/03/07 00:05:23;;;;;;;;;;;6.70;99.90;;;;;;5091153;28;20368;-91
2021/03/07 00:07:50;;;;;;;;;;;6.70;99.90;;;;;;5085303;28;19911;-91
2021/03/07 00:10:17;;;;;;;;;;;6.70;99.90;;;;;;5089379;28;20378;-91
2021/03/07 00:12:45;;;;;;;;;;;6.60;99.90;;;;;;5090707;28;19973;-91
2021/03/07 00:15:14;;;;;;;;;;;6.60;99.90;;;;;;5089807;28;20688;-91
2021/03/07 00:17:45;;;;;;;;;;;6.70;99.90;;;;;;5089997;28;20142;-91
2021/03/07 00:20:13;;;;;;;;;;;6.70;99.90;;;;;;5073121;28;19912;-91
2021/03/07 00:22:46;;;;;;;;;;;6.80;99.90;;;;;;5091666;28;19910;-90
2021/03/07 00:25:13;;;;;;;;;;;6.80;99.90;;;;;;5088705;28;20359;-91
2021/03/07 00:27:39;;;;;;;;;;;6.90;99.90;;;;;;5090662;28;20427;-90
2021/03/07 00:30:09;;;;;;;;;;;6.90;99.90;;;;;;5091251;28;19948;-91
2021/03/07 00:32:34;;;;;;;;;;;6.90;99.90;;;;;;5084578;28;19912;-91
2021/03/07 00:35:00;;;;;;;;;;;6.90;99.90;;;;;;5090221;28;20407;-91
2021/03/07 00:37:26;;;;;;;;;;;6.90;99.90;;;;;;5077642;28;19927;-91
2021/03/07 00:39:52;;;;;;;;;;;6.80;99.90;;;;;;5083203;28;19993;-92
2021/03/07 00:42:17;;;;;;;;;;;6.80;99.90;;;;;;5072467;28;20397;-92
2021/03/07 00:44:43;;;;;;;;;;;6.80;99.90;;;;;;5079948;28;19929;-92
2021/03/07 00:47:09;;;;;;;;;;;6.80;99.90;;;;;;5086808;28;19994;-91
2021/03/07 00:49:35;;;;;;;;;;;6.70;99.90;;;;;;5086121;28;19963;-92
2021/03/07 00:52:01;;;;;;;;;;;6.70;99.90;;;;;;5088638;28;19911;-92
2021/03/07 00:54:26;;;;;;;;;;;6.60;99.90;;;;;;5086487;28;19919;-92
2021/03/07 00:56:52;;;;;;;;;;;6.60;99.90;;;;;;5085673;28;19908;-91
2021/03/07 00:59:18;;;;;;;;;;;6.40;99.90;;;;;;5089316;28;20030;-92
2021/03/07 01:01:44;;;;;;;;;;;6.40;99.90;;;;;;5080385;28;19994;-92
2021/03/07 01:04:09;;;;;;;;;;;6.50;99.90;;;;;;5084051;28;20367;-92
2021/03/07 01:06:35;;;;;;;;;;;6.50;99.90;;;;;;5077641;28;19916;-92
2021/03/07 01:09:00;;;;;;;;;;;6.60;99.90;;;;;;5081368;28;19904;-92
2021/03/07 01:11:26;;;;;;;;;;;6.60;99.90;;;;;;5084562;28;20435;-92
2021/03/07 01:13:52;;;;;;;;;;;6.50;99.90;;;;;;5079866;28;20711;-92
2021/03/07 01:16:18;;;;;;;;;;;6.30;99.90;;;;;;5086205;28;19919;-92
2021/03/07 01:18:44;;;;;;;;;;;6.30;99.90;;;;;;5088137;28;19943;-92
2021/03/07 01:21:10;;;;;;;;;;;6.20;99.90;;;;;;5076106;28;19957;-92
2021/03/07 01:23:36;;;;;;;;;;;6.20;99.90;;;;;;5082256;28;20492;-92
2021/03/07 01:26:01;;;;;;;;;;;6.30;99.90;;;;;;5079236;28;19998;-92
2021/03/07 01:28:27;;;;;;;;;;;6.30;99.90;;;;;;5086007;28;20268;-92
2021/03/07 01:30:53;;;;;;;;;;;6.40;99.90;;;;;;5084469;28;20590;-92
2021/03/07 01:33:19;;;;;;;;;;;6.40;99.90;;;;;;5076385;28;19912;-92
2021/03/07 01:35:44;;;;;;;;;;;6.50;99.90;;;;;;5082738;28;19911;-92
2021/03/07 01:38:10;;;;;;;;;;;6.50;99.90;;;;;;5085241;28;19916;-92
2021/03/07 01:40:35;;;;;;;;;;;6.40;99.90;;;;;;5090475;28;19965;-92
2021/03/07 01:43:02;;;;;;;;;;;6.30;99.90;;;;;;5088207;28;19915;-91
2021/03/07 01:45:29;;;;;;;;;;;6.40;99.90;;;;;;5086820;28;19908;-92
2021/03/07 01:47:57;;;;;;;;;;;6.40;99.90;;;;;;5088903;28;19908;-92
2021/03/07 01:50:24;;;;;;;;;;;6.40;99.90;;;;;;5086353;28;19927;-92
2021/03/07 01:52:50;;;;;;;;;;;6.40;99.90;;;;;;5082723;28;19908;-92
2021/03/07 01:55:16;;;;;;;;;;;6.40;99.90;;;;;;5075977;28;20283;-92
2021/03/07 01:57:43;;;;;;;;;;;6.50;99.90;;;;;;5087332;28;19916;-90
2021/03/07 02:00:10;;;;;;;;;;;6.50;99.90;;;;;;5075169;28;19915;-90
2021/03/07 02:02:36;;;;;;;;;;;6.40;99.90;;;;;;5089193;28;20299;-91
2021/03/07 02:05:05;;;;;;;;;;;6.40;99.90;;;;;;5088048;28;19915;-91
2021/03/07 02:07:31;;;;;;;;;;;6.40;99.90;;;;;;5079513;28;20002;-91
2021/03/07 02:09:56;;;;;;;;;;;6.40;99.90;;;;;;5076507;28;20471;-91
2021/03/07 02:12:22;;;;;;;;;;;6.40;99.90;;;;;;5086391;28;19958;-91
2021/03/07 02:14:50;;;;;;;;;;;6.30;99.90;;;;;;5073624;28;19904;-91
2021/03/07 02:17:16;;;;;;;;;;;6.30;99.90;;;;;;5074365;28;19912;-91
2021/03/07 02:19:41;;;;;;;;;;;6.40;99.90;;;;;;5079525;28;19908;-91
2021/03/07 02:22:14;;;;;;;;;;;6.20;99.90;;;;;;5090298;28;19912;-92
2021/03/07 02:24:40;;;;;;;;;;;6.30;99.90;;;;;;5088497;28;20144;-91
2021/03/07 02:27:06;;;;;;;;;;;6.20;99.90;;;;;;5083176;28;19916;-91
2021/03/07 02:29:32;;;;;;;;;;;6.20;99.90;;;;;;5085918;28;19908;-92
2021/03/07 02:31:59;;;;;;;;;;;6.20;99.90;;;;;;5088913;28;19969;-92
2021/03/07 02:34:40;;;;;;;;;;;6.20;99.90;;;;;;5078289;28;20279;-92
2021/03/07 02:37:07;;;;;;;;;;;6.10;99.90;;;;;;5088042;28;19912;-93
2021/03/07 02:39:33;;;;;;;;;;;6.20;99.90;;;;;;5088799;28;19908;-92
2021/03/07 02:42:01;;;;;;;;;;;6.20;99.90;;;;;;5081896;28;20372;-92
2021/03/07 02:44:29;;;;;;;;;;;6.10;99.90;;;;;;5085402;28;19904;-92
2021/03/07 02:46:55;;;;;;;;;;;6.00;99.90;;;;;;5089334;28;19926;-92
2021/03/07 02:49:21;;;;;;;;;;;6.10;99.90;;;;;;5089133;28;19939;-92
2021/03/07 02:51:48;;;;;;;;;;;6.00;99.90;;;;;;5079792;28;19904;-91
2021/03/07 02:54:15;;;;;;;;;;;6.00;99.90;;;;;;5090220;28;20041;-92
2021/03/07 02:56:44;;;;;;;;;;;6.00;99.90;;;;;;5090157;28;19915;-92
2021/03/07 02:59:11;;;;;;;;;;;6.10;99.90;;;;;;5089470;28;19908;-92
2021/03/07 03:01:38;;;;;;;;;;;6.00;99.90;;;;;;5090488;28;20376;-91
2021/03/07 03:04:04;;;;;;;;;;;6.00;99.90;;;;;;5078838;28;19904;-92
2021/03/07 03:06:29;;;;;;;;;;;6.10;99.90;;;;;;5071444;28;19911;-92
2021/03/07 03:08:56;;;;;;;;;;;6.10;99.90;;;;;;5084497;28;19903;-92
2021/03/07 03:11:27;;;;;;;;;;;6.20;99.90;;;;;;5091982;28;19904;-92
2021/03/07 03:13:52;;;;;;;;;;;6.20;99.90;;;;;;5094021;28;19911;-92
2021/03/07 03:16:22;;;;;;;;;;;6.30;99.90;;;;;;5083853;28;19908;-91
2021/03/07 03:18:48;;;;;;;;;;;6.30;99.90;;;;;;5080446;28;19954;-91
2021/03/07 03:21:14;;;;;;;;;;;6.40;99.90;;;;;;5091794;28;19912;-91
2021/03/07 03:23:41;;;;;;;;;;;6.40;99.90;;;;;;5080209;28;19904;-92
2021/03/07 03:26:07;;;;;;;;;;;6.40;99.90;;;;;;5091533;28;19915;-92
2021/03/07 03:28:33;;;;;;;;;;;6.20;99.90;;;;;;5082787;28;19916;-92
2021/03/07 03:30:59;;;;;;;;;;;5.90;99.90;;;;;;5086607;28;19904;-92
2021/03/07 03:33:25;;;;;;;;;;;5.90;99.90;;;;;;5090160;28;19912;-92
2021/03/07 03:35:52;;;;;;;;;;;6.00;99.90;;;;;;5080067;28;19991;-91
2021/03/07 03:38:18;;;;;;;;;;;6.00;99.90;;;;;;5092766;28;19994;-92
2021/03/07 03:40:46;;;;;;;;;;;5.90;99.90;;;;;;5082401;28;19908;-92
2021/03/07 03:43:12;;;;;;;;;;;6.00;99.90;;;;;;5091058;28;19908;-92
2021/03/07 03:45:39;;;;;;;;;;;5.90;99.90;;;;;;5090402;28;20374;-92
2021/03/07 03:48:07;;;;;;;;;;;5.80;99.90;;;;;;5090476;28;19956;-92
2021/03/07 03:50:35;;;;;;;;;;;5.90;99.90;;;;;;5091206;28;19908;-92
2021/03/07 03:53:01;;;;;;;;;;;5.90;99.90;;;;;;5087303;28;19961;-92
2021/03/07 03:55:28;;;;;;;;;;;5.90;99.90;;;;;;5078488;28;20376;-92
2021/03/07 03:57:56;;;;;;;;;;;5.90;99.90;;;;;;5086898;28;20443;-92
2021/03/07 04:00:23;;;;;;;;;;;5.90;99.90;;;;;;5091134;28;19908;-91
2021/03/07 04:02:49;;;;;;;;;;;5.90;99.90;;;;;;5090852;28;19945;-92
2021/03/07 04:05:17;;;;;;;;;;;5.90;99.90;;;;;;5084227;28;20374;-92
2021/03/07 04:07:43;;;;;;;;;;;6.00;99.90;;;;;;5084295;28;19904;-91
2021/03/07 04:10:09;;;;;;;;;;;6.10;99.90;;;;;;5077611;28;19915;-92
2021/03/07 04:12:37;;;;;;;;;;;6.00;99.90;;;;;;5092092;28;19904;-92
2021/03/07 04:15:03;;;;;;;;;;;6.00;99.90;;;;;;5088906;28;19947;-92
2021/03/07 04:17:29;;;;;;;;;;;6.00;99.90;;;;;;5085051;28;20075;-92
2021/03/07 04:19:55;;;;;;;;;;;6.10;99.90;;;;;;5090228;28;20336;-92
2021/03/07 04:22:21;;;;;;;;;;;6.10;99.90;;;;;;5076767;28;20001;-92
2021/03/07 04:24:47;;;;;;;;;;;5.90;99.90;;;;;;5083312;28;19916;-92
2021/03/07 04:27:13;;;;;;;;;;;5.90;99.90;;;;;;5087808;28;19936;-92
2021/03/07 04:29:39;;;;;;;;;;;5.90;99.90;;;;;;5091900;28;19908;-92
2021/03/07 04:32:05;;;;;;;;;;;5.80;99.90;;;;;;5090271;28;19923;-91
2021/03/07 04:34:31;;;;;;;;;;;5.80;99.90;;;;;;5090104;28;20383;-91
2021/03/07 04:36:57;;;;;;;;;;;5.80;99.90;;;;;;5087469;28;19916;-91
2021/03/07 04:39:23;;;;;;;;;;;5.90;99.90;;;;;;5089109;28;20368;-91
2021/03/07 04:41:49;;;;;;;;;;;6.00;99.90;;;;;;5091044;28;20321;-91
2021/03/07 04:44:15;;;;;;;;;;;6.00;99.90;;;;;;5083890;28;19904;-91
2021/03/07 04:46:41;;;;;;;;;;;6.80;99.90;;;;;;5089930;28;19947;-90
2021/03/07 04:49:06;;;;;;;;;;;8.90;99.90;;;;;;5087747;28;19912;-91
2021/03/07 04:51:32;;;;;;;;;;;8.70;99.90;;;;;;5076292;28;19962;-90
2021/03/07 04:53:57;;;;;;;;;;;8.70;99.90;;;;;;5077928;28;19909;-91
2021/03/07 04:56:26;;;;;;;;;;;8.70;99.90;;;;;;5084262;28;19939;-91
2021/03/07 04:58:52;;;;;;;;;;;8.80;99.90;;;;;;5082264;28;20390;-91
2021/03/07 05:01:18;;;;;;;;;;;8.90;99.90;;;;;;5088561;28;19908;-91
2021/03/07 05:03:43;;;;;;;;;;;8.90;99.90;;;;;;5089975;28;19960;-91
2021/03/07 05:06:11;;;;;;;;;;;9.00;99.90;;;;;;5080742;28;19919;-91
2021/03/07 05:08:36;;;;;;;;;;;9.00;99.90;;;;;;5090281;28;19908;-92
2021/03/07 05:11:02;;;;;;;;;;;9.00;99.90;;;;;;5077414;28;19911;-92
2021/03/07 05:13:28;;;;;;;;;;;9.00;99.90;;;;;;5088344;28;20386;-92
2021/03/07 05:15:53;;;;;;;;;;;9.00;99.90;;;;;;5089665;28;19907;-92
2021/03/07 05:18:19;;;;;;;;;;;9.10;99.90;;;;;;5078473;28;19952;-92
2021/03/07 05:20:45;;;;;;;;;;;9.00;99.90;;;;;;5089915;28;20340;-92
2021/03/07 05:23:10;;;;;;;;;;;9.10;99.90;;;;;;5089273;28;19990;-91
2021/03/07 05:25:36;;;;;;;;;;;9.20;99.90;;;;;;5079806;28;19999;-91
2021/03/07 05:28:02;;;;;;;;;;;9.20;99.90;;;;;;5083665;28;19904;-91
2021/03/07 05:30:27;;;;;;;;;;;9.00;99.90;;;;;;5087778;28;19957;-91
2021/03/07 05:32:53;;;;;;;;;;;9.00;99.90;;;;;;5085064;28;19920;-91
2021/03/07 05:35:19;;;;;;;;;;;9.10;99.90;;;;;;5088720;28;19999;-92
2021/03/07 05:37:45;;;;;;;;;;;9.10;99.90;;;;;;5088275;28;19914;-91
2021/03/07 05:40:11;;;;;;;;;;;9.10;99.90;;;;;;5089272;28;19904;-90
2021/03/07 05:42:36;;;;;;;;;;;9.10;99.90;;;;;;5084508;28;20371;-91
2021/03/07 05:45:02;;;;;;;;;;;9.20;99.90;;;;;;5088996;28;20332;-91
2021/03/07 05:47:28;;;;;;;;;;;9.20;99.90;;;;;;5075844;28;20260;-91
2021/03/07 05:49:54;;;;;;;;;;;9.20;99.90;;;;;;5088138;28;19907;-90
2021/03/07 05:52:23;;;;;;;;;;;9.20;99.90;;;;;;5089085;28;19948;-91
2021/03/07 05:54:51;;;;;;;;;;;9.20;99.90;;;;;;5088875;28;19904;-91
2021/03/07 05:57:18;;;;;;;;;;;9.20;99.90;;;;;;5079056;28;20007;-91
2021/03/07 05:59:44;;;;;;;;;;;9.20;99.90;;;;;;5083535;28;19912;-91
2021/03/07 06:02:14;;;;;;;;;;;9.20;99.90;;;;;;5080062;28;19912;-90
2021/03/07 06:04:40;;;;;;;;;;;9.20;99.90;;;;;;5081548;28;20467;-90
2021/03/07 06:07:06;;;;;;;;;;;9.20;99.90;;;;;;5079453;28;19919;-90
2021/03/07 06:09:31;;;;;;;;;;;9.20;99.90;;;;;;5086275;28;19929;-90
2021/03/07 06:11:59;;;;;;;;;;;9.20;99.90;;;;;;5081707;28;20428;-89
2021/03/07 06:14:26;;;;;;;;;;;9.10;99.90;;;;;;5079287;28;20383;-89
2021/03/07 06:17:10;;;;;;;;;;;9.10;99.90;;;;;;5075198;28;19923;-88
2021/03/07 06:20:02;;;;;;;;;;;9.10;99.90;;;;;;5072824;28;20613;-89
2021/03/07 06:22:29;;;;;;;;;;;9.00;99.90;;;;;;5081155;28;19908;-89
2021/03/07 06:24:55;;;;;;;;;;;9.00;99.90;;;;;;5084311;28;19956;-89
2021/03/07 06:27:20;;;;;;;;;;;9.00;99.90;;;;;;5086319;28;19915;-87
2021/03/07 06:29:55;;;;;;;;;;;9.00;99.90;;;;;;5088249;28;19956;-88
2021/03/07 06:32:21;;;;;;;;;;;9.00;99.90;;;;;;5087785;28;20366;-88
2021/03/07 06:34:48;;;;;;;;;;;9.00;99.90;;;;;;5088887;28;20410;-88
2021/03/07 06:37:14;;;;;;;;;;;9.00;99.90;;;;;;5080919;28;19958;-87
2021/03/07 06:39:40;;;;;;;;;;;9.10;99.90;;;;;;5083300;28;19933;-87
2021/03/07 06:42:06;;;;;;;;;;;9.10;99.90;;;;;;5082886;28;20423;-87
2021/03/07 06:44:32;;;;;;;;;;;9.20;99.90;;;;;;5084790;28;19915;-88
2021/03/07 06:47:16;;;;;;;;;;;9.20;99.90;;;;;;5092048;28;19915;-87
2021/03/07 06:49:41;;;;;;;;;;;9.20;99.90;;;;;;5084621;28;19920;-87
2021/03/07 06:52:19;;;;;;;;;;;9.30;99.90;;;;;;5079938;28;19911;-88
2021/03/07 06:55:04;;;;;;;;;;;9.20;99.90;;;;;;5089376;28;19928;-88
2021/03/07 06:57:30;;;;;;;;;;;9.30;99.90;;;;;;5085919;28;20310;-89
2021/03/07 06:59:55;;;;;;;;;;;9.20;99.90;;;;;;5088311;28;19912;-89
2021/03/07 07:02:21;;;;;;;;;;;9.30;99.90;;;;;;5082981;28;20288;-88
2021/03/07 07:04:47;;;;;;;;;;;9.30;99.90;;;;;;5088593;28;19957;-86
2021/03/07 07:07:14;;;;;;;;;;;9.30;99.90;;;;;;5079702;28;19964;-90
2021/03/07 07:09:40;;;;;;;;;;;9.40;99.90;;;;;;5087002;28;20009;-89
2021/03/07 07:12:18;;;;;;;;;;;9.40;99.90;;;;;;5072928;28;19919;-88
2021/03/07 07:14:44;;;;;;;;;;;9.40;99.90;;;;;;5087047;28;20039;-90
2021/03/07 07:17:11;;;;;;;;;;;9.40;99.90;;;;;;5090810;28;19935;-89
2021/03/07 07:19:37;;;;;;;;;;;9.30;99.90;;;;;;5089281;28;19912;-92
2021/03/07 07:22:04;;;;;;;;;;;9.40;99.90;;;;;;5086088;28;20413;-92
2021/03/07 07:24:29;;;;;;;;;;;9.50;99.90;;;;;;5083191;28;19931;-92
2021/03/07 07:26:56;;;;;;;;;;;9.50;99.90;;;;;;5090881;28;19996;-92
2021/03/07 07:29:23;;;;;;;;;;;9.50;99.90;;;;;;5078978;28;19912;-92
2021/03/07 07:31:58;;;;;;;;;;;9.60;99.90;;;;;;5075388;28;19916;-92
2021/03/07 07:34:53;;;;;;;;;;;9.70;99.90;;;;;;5089847;28;20041;-92
2021/03/07 07:37:28;;;;;;;;;;;9.90;99.90;;;;;;5077451;28;20495;-92
2021/03/07 07:39:54;;;;;;;;;;;10.10;99.90;;;;;;5087824;28;20082;-92
2021/03/07 07:42:23;;;;;;;;;;;10.00;99.90;;;;;;5077577;28;19904;-90
2021/03/07 07:44:48;;;;;;;;;;;10.00;99.90;;;;;;5092506;28;19947;-92
2021/03/07 07:47:15;;;;;;;;;;;10.00;99.90;;;;;;5081741;28;20009;-92
2021/03/07 07:49:41;;;;;;;;;;;10.00;99.90;;;;;;5089259;28;19908;-92
2021/03/07 07:52:29;;;;;;;;;;;9.90;99.90;;;;;;5094305;28;19947;-91
2021/03/07 07:54:58;;;;;;;;;;;9.90;99.90;;;;;;5094573;28;19939;-91
2021/03/07 07:57:41;;;;;;;;;;;9.90;99.90;;;;;;5083099;28;19912;-92
2021/03/07 08:00:17;;;;;;;;;;;9.90;99.90;;;;;;5085073;28;20291;-91
2021/03/07 08:02:42;;;;;;;;;;;9.90;99.90;;;;;;5093822;28;19904;-92
2021/03/07 08:05:20;;;;;;;;;;;9.90;99.90;;;;;;5093672;28;19911;-91
2021/03/07 08:08:04;;;;;;;;;;;10.00;99.90;;;;;;5086855;28;19911;-92
2021/03/07 08:10:39;;;;;;;;;;;9.90;99.90;;;;;;5087701;28;19904;-91
2021/03/07 08:13:16;;;;;;;;;;;10.00;99.90;;;;;;5089403;28;19907;-91
2021/03/07 08:15:41;;;;;;;;;;;10.00;99.90;;;;;;5093531;28;19908;-91
2021/03/07 08:18:07;;;;;;;;;;;10.00;99.90;;;;;;5088761;28;19995;-91
2021/03/07 08:20:40;;;;;;;;;;;10.10;99.90;;;;;;5088248;28;19911;-91
2021/03/07 08:23:06;;;;;;;;;;;10.30;99.90;;;;;;5082084;28;19947;-91
2021/03/07 08:25:51;;;;;;;;;;;10.20;99.90;;;;;;5085037;28;19915;-91
2021/03/07 08:28:24;;;;;;;;;;;10.30;99.90;;;;;;5093258;28;19911;-91
2021/03/07 08:30:55;;;;;;;;;;;10.50;99.90;;;;;;5087800;28;19952;-91
2021/03/07 08:33:32;;;;;;;;;;;10.50;99.90;;;;;;5078733;28;19951;-91
2021/03/07 08:36:15;;;;;;;;;;;10.60;99.90;;;;;;5075274;28;19991;-91
2021/03/07 08:38:53;;;;;;;;;;;10.80;99.90;;;;;;5080264;28;19920;-92
2021/03/07 08:41:19;;;;;;;;;;;10.90;99.90;;;;;;5074835;28;19957;-92
2021/03/07 08:43:46;;;;;;;;;;;11.00;99.90;;;;;;5088249;28;20638;-90
2021/03/07 08:46:16;;;;;;;;;;;11.10;99.90;;;;;;5089300;28;20398;-91
2021/03/07 08:48:52;;;;;;;;;;;11.30;99.90;;;;;;5090211;28;19908;-91
2021/03/07 08:51:18;;;;;;;;;;;11.40;99.90;;;;;;5069435;28;20336;-91
2021/03/07 08:53:45;;;;;;;;;;;11.70;99.90;;;;;;5078165;28;19911;-90
2021/03/07 08:56:12;;;;;;;;;;;11.70;99.90;;;;;;5073191;28;20334;-89
2021/03/07 08:58:38;;;;;;;;;;;11.90;99.90;;;;;;5076586;28;20023;-90
2021/03/07 09:01:04;;;;;;;;;;;12.00;99.90;;;;;;5071504;28;19994;-91
2021/03/07 09:03:30;;;;;;;;;;;12.00;99.90;;;;;;5073936;28;20421;-91
2021/03/07 09:05:59;;;;;;;;;;;12.00;99.90;;;;;;5075504;28;19908;-89
2021/03/07 09:08:27;;;;;;;;;;;12.00;99.90;;;;;;5073819;28;19912;-91
2021/03/07 09:10:55;;;;;;;;;;;11.90;99.90;;;;;;5076284;28;19908;-91
2021/03/07 09:13:30;;;;;;;;;;;12.10;99.90;;;;;;5072897;28;20427;-91
2021/03/07 09:16:02;;;;;;;;;;;12.20;99.90;;;;;;5082217;28;19914;-91
2021/03/07 09:18:31;;;;;;;;;;;12.00;99.90;;;;;;5075481;28;19912;-91
2021/03/07 09:20:59;;;;;;;;;;;12.20;99.90;;;;;;5077847;28;20011;-91
2021/03/07 09:23:30;;;;;;;;;;;12.50;99.90;;;;;;5073836;28;19908;-91
2021/03/07 09:25:58;;;;;;;;;;;12.60;99.90;;;;;;5074812;28;19912;-92
2021/03/07 09:28:39;;;;;;;;;;;12.80;99.90;;;;;;5073541;28;19905;-90
2021/03/07 09:31:08;;;;;;;;;;;12.90;99.90;;;;;;5076867;28;19908;-91
2021/03/07 09:33:37;;;;;;;;;;;12.70;99.90;;;;;;5071822;28;20015;-90
2021/03/07 09:36:07;;;;;;;;;;;13.00;99.90;;;;;;5074695;28;20726;-90
2021/03/07 09:38:43;;;;;;;;;;;13.10;99.90;;;;;;5073173;28;20640;-90
2021/03/07 09:41:11;;;;;;;;;;;13.00;99.90;;;;;;5076519;28;20375;-90
2021/03/07 09:43:38;;;;;;;;;;;12.80;99.90;;;;;;5073275;28;19962;-89
2021/03/07 09:46:06;;;;;;;;;;;13.00;99.90;;;;;;5074150;28;19920;-91
2021/03/07 09:48:33;;;;;;;;;;;13.40;99.90;;;;;;5080828;28;19908;-91
2021/03/07 09:51:00;;;;;;;;;;;13.60;99.90;;;;;;5076782;28;19915;-91
2021/03/07 09:53:53;;;;;;;;;;;14.00;99.90;;;;;;5074748;28;20023;-91
2021/03/07 09:56:29;;;;;;;;;;;14.20;99.90;;;;;;5077639;28;20000;-92
2021/03/07 09:59:08;;;;;;;;;;;13.70;99.90;;;;;;5072845;28;20399;-91
2021/03/07 10:01:46;;;;;;;;;;;13.70;99.90;;;;;;5069746;28;19919;-91
2021/03/07 10:04:34;;;;;;;;;;;14.00;99.90;;;;;;5074222;28;19908;-90
2021/03/07 10:07:13;;;;;;;;;;;14.00;99.90;;;;;;5072460;28;19905;-90
2021/03/07 10:09:58;;;;;;;;;;;14.30;99.90;;;;;;5075707;28;19912;-90
2021/03/07 10:12:23;;;;;;;;;;;15.20;99.90;;;;;;5074968;28;19908;-91
2021/03/07 10:14:53;;;;;;;;;;;15.10;99.90;;;;;;5072612;28;19957;-91
2021/03/07 10:17:19;;;;;;;;;;;14.60;99.90;;;;;;5071743;28;19912;-91
2021/03/07 10:19:45;;;;;;;;;;;14.10;99.90;;;;;;5075938;28;20295;-92
2021/03/07 10:22:11;;;;;;;;;;;14.40;99.90;;;;;;5084294;28;19984;-91
2021/03/07 10:24:37;;;;;;;;;;;15.00;99.90;;;;;;5081735;28;19908;-91
2021/03/07 10:27:04;;;;;;;;;;;14.50;99.90;;;;;;5079244;28;19915;-92
2021/03/07 10:29:32;;;;;;;;;;;14.00;99.90;;;;;;5078002;28;19916;-92
2021/03/07 10:32:16;;;;;;;;;;;14.20;99.90;;;;;;5078917;28;19919;-91
2021/03/07 10:34:43;;;;;;;;;;;14.20;99.90;;;;;;5077638;28;20002;-92
2021/03/07 10:37:10;;;;;;;;;;;13.90;99.90;;;;;;5082475;28;19913;-91
2021/03/07 10:39:45;;;;;;;;;;;13.50;99.90;;;;;;5079534;28;19904;-92
2021/03/07 10:42:12;;;;;;;;;;;13.40;99.90;;;;;;5080441;28;19911;-91
2021/03/07 10:44:40;;;;;;;;;;;13.50;99.90;;;;;;5078924;28;19952;-91
2021/03/07 10:47:13;;;;;;;;;;;13.20;99.90;;;;;;5079485;28;19908;-91
2021/03/07 10:49:39;;;;;;;;;;;12.90;99.90;;;;;;5081018;28;20715;-91
2021/03/07 10:52:04;;;;;;;;;;;12.80;99.90;;;;;;5078866;28;19994;-91
2021/03/07 10:54:30;;;;;;;;;;;12.70;99.90;;;;;;5078445;28;19940;-91
2021/03/07 10:56:56;;;;;;;;;;;12.30;99.90;;;;;;5085568;28;20307;-91
2021/03/07 10:59:21;;;;;;;;;;;12.60;99.90;;;;;;5079596;28;19908;-90
2021/03/07 11:01:47;;;;;;;;;;;12.40;99.90;;;;;;5083520;28;19916;-91
2021/03/07 11:04:13;;;;;;;;;;;11.90;99.90;;;;;;5073044;28;20363;-91
2021/03/07 11:06:38;;;;;;;;;;;11.80;99.90;;;;;;5079114;28;19908;-91
2021/03/07 11:09:04;;;;;;;;;;;11.80;99.90;;;;;;5077349;28;19908;-91
2021/03/07 11:11:43;;;;;;;;;;;11.60;99.90;;;;;;5076670;28;19908;-91
2021/03/07 11:14:12;;;;;;;;;;;11.50;99.90;;;;;;5055420;28;19922;-91
2021/03/07 11:16:40;;;;;;;;;;;11.40;99.90;;;;;;5075514;28;19958;-91
2021/03/07 11:19:06;;;;;;;;;;;12.70;99.90;;;;;;5073242;28;19904;-92
2021/03/07 11:21:32;;;;;;;;;;;16.00;99.90;;;;;;5072406;28;19916;-91
2021/03/07 11:23:58;;;;;;;;;;;18.00;99.90;;;;;;5080618;28;19908;-90
2021/03/07 11:26:25;;;;;;;;;;;17.80;99.90;;;;;;5080323;28;19909;-91
2021/03/07 11:29:01;;;;;;;;;;;15.20;99.90;;;;;;5086156;28;19908;-92
2021/03/07 11:31:27;;;;;;;;;;;13.60;99.90;;;;;;5076474;28;19931;-90
2021/03/07 11:33:52;;;;;;;;;;;13.50;99.90;;;;;;5084678;28;19908;-91
2021/03/07 11:36:18;;;;;;;;;;;14.10;99.90;;;;;;5083901;28;19955;-89
2021/03/07 11:38:44;;;;;;;;;;;14.60;99.90;;;;;;5073724;28;19919;-89
2021/03/07 11:41:09;;;;;;;;;;;14.70;99.90;;;;;;5079255;28;19908;-90
2021/03/07 11:43:35;;;;;;;;;;;14.30;99.90;;;;;;5072063;28;20394;-89
2021/03/07 11:46:01;;;;;;;;;;;14.60;99.90;;;;;;5081006;28;20329;-90
2021/03/07 11:48:27;;;;;;;;;;;16.50;99.90;;;;;;5087224;28;19969;-90
2021/03/07 11:50:53;;;;;;;;;;;17.30;99.90;;;;;;5087735;28;19909;-90
2021/03/07 11:53:18;;;;;;;;;;;15.90;99.90;;;;;;5074783;28;19979;-90
2021/03/07 11:55:44;;;;;;;;;;;15.60;99.90;;;;;;5078813;28;20003;-88
2021/03/07 11:58:09;;;;;;;;;;;14.30;99.90;;;;;;5081940;28;20288;-90
2021/03/07 12:00:35;;;;;;;;;;;13.50;99.90;;;;;;5072681;28;19909;-88
2021/03/07 12:03:01;;;;;;;;;;;13.40;99.90;;;;;;5074506;28;20431;-89
2021/03/07 12:05:26;;;;;;;;;;;13.60;99.90;;;;;;5088537;28;19916;-90
2021/03/07 12:07:52;;;;;;;;;;;13.40;99.90;;;;;;5083341;28;19908;-90
2021/03/07 12:10:19;;;;;;;;;;;13.40;99.90;;;;;;5082122;28;20603;-88
2021/03/07 12:12:45;;;;;;;;;;;13.90;99.90;;;;;;5079105;28;19916;-88
2021/03/07 12:15:11;;;;;;;;;;;13.70;99.90;;;;;;5082556;28;19915;-88
2021/03/07 12:17:36;;;;;;;;;;;13.00;99.90;;;;;;5075372;28;19916;-87
2021/03/07 12:20:03;;;;;;;;;;;12.80;99.90;;;;;;5086409;28;19954;-88
2021/03/07 12:22:28;;;;;;;;;;;12.70;99.90;;;;;;5079285;28;19950;-87
2021/03/07 12:24:54;;;;;;;;;;;12.50;99.90;;;;;;5070735;28;19959;-89
2021/03/07 12:27:20;;;;;;;;;;;12.30;99.90;;;;;;5073164;28;20353;-89
2021/03/07 12:29:47;;;;;;;;;;;12.20;99.90;;;;;;5073279;28;19909;-88
2021/03/07 12:32:13;;;;;;;;;;;12.30;99.90;;;;;;5075344;28;19916;-88
2021/03/07 12:34:39;;;;;;;;;;;12.20;99.90;;;;;;5079609;28;19924;-88
2021/03/07 12:37:04;;;;;;;;;;;12.30;99.90;;;;;;5077178;28;19969;-87
2021/03/07 12:39:30;;;;;;;;;;;12.10;99.90;;;;;;5077103;28;19957;-89
2021/03/07 12:41:56;;;;;;;;;;;12.10;99.90;;;;;;5078658;28;19960;-90
2021/03/07 12:44:21;;;;;;;;;;;12.00;99.90;;;;;;5071546;28;20039;-88
2021/03/07 12:46:47;;;;;;;;;;;11.90;99.90;;;;;;5076479;28;19927;-88
2021/03/07 12:49:13;;;;;;;;;;;11.60;99.90;;;;;;5075535;28;19905;-89
2021/03/07 12:51:39;;;;;;;;;;;11.50;99.90;;;;;;5082566;28;19911;-89
2021/03/07 12:54:04;;;;;;;;;;;11.70;99.90;;;;;;5082843;28;19959;-90
2021/03/07 12:56:32;;;;;;;;;;;11.90;99.90;;;;;;5079846;28;19904;-88
2021/03/07 12:58:58;;;;;;;;;;;12.20;99.90;;;;;;5078523;28;19908;-90
2021/03/07 13:01:24;;;;;;;;;;;12.70;99.90;;;;;;5082344;28;19912;-87
2021/03/07 13:03:49;;;;;;;;;;;13.10;99.90;;;;;;5082151;28;19997;-87
2021/03/07 13:06:15;;;;;;;;;;;13.10;99.90;;;;;;5082689;28;19908;-87
2021/03/07 13:08:41;;;;;;;;;;;13.10;99.90;;;;;;5077581;28;20003;-87
2021/03/07 13:11:07;;;;;;;;;;;13.10;99.90;;;;;;5084081;28;21042;-89
2021/03/07 13:13:33;;;;;;;;;;;13.70;99.90;;;;;;5089117;28;20393;-89
2021/03/07 13:15:58;;;;;;;;;;;13.90;99.90;;;;;;5082744;28;19939;-88
2021/03/07 13:18:24;;;;;;;;;;;14.40;99.90;;;;;;5083658;28;20002;-89
2021/03/07 13:20:50;;;;;;;;;;;14.60;99.90;;;;;;5082874;28;19935;-89
2021/03/07 13:23:16;;;;;;;;;;;14.10;99.90;;;;;;5084730;28;20363;-88
2021/03/07 13:25:44;;;;;;;;;;;13.90;99.90;;;;;;5076195;28;19943;-87
2021/03/07 13:28:10;;;;;;;;;;;13.90;99.90;;;;;;5074843;28;20502;-88
2021/03/07 13:30:35;;;;;;;;;;;13.60;99.90;;;;;;5077683;28;19905;-88
2021/03/07 13:33:01;;;;;;;;;;;13.30;99.90;;;;;;5077546;28;19967;-88
2021/03/07 13:35:27;;;;;;;;;;;12.70;99.90;;;;;;5069703;28;19912;-88
2021/03/07 13:37:52;;;;;;;;;;;12.90;99.90;;;;;;5088973;28;20279;-87
2021/03/07 13:40:18;;;;;;;;;;;12.70;99.90;;;;;;5089374;28;19957;-88
2021/03/07 13:42:43;;;;;;;;;;;12.60;99.90;;;;;;5074942;28;19908;-87
2021/03/07 13:45:15;;;;;;;;;;;12.50;99.90;;;;;;5080754;28;19912;-87
2021/03/07 13:47:43;;;;;;;;;;;12.60;99.90;;;;;;5081591;28;19904;-88
2021/03/07 13:50:10;;;;;;;;;;;12.80;99.90;;;;;;5083865;28;19973;-88
2021/03/07 13:52:38;;;;;;;;;;;12.80;99.90;;;;;;5078175;28;19916;-87
2021/03/07 13:55:04;;;;;;;;;;;12.80;99.90;;;;;;5077945;28;19910;-88
2021/03/07 13:57:30;;;;;;;;;;;13.10;99.90;;;;;;5078639;28;19914;-87
2021/03/07 13:59:55;;;;;;;;;;;13.30;99.90;;;;;;5082368;28;20354;-87
2021/03/07 14:02:21;;;;;;;;;;;13.50;99.90;;;;;;5080359;28;19912;-88
2021/03/07 14:04:46;;;;;;;;;;;13.70;99.90;;;;;;5086258;28;19911;-89
2021/03/07 14:07:12;;;;;;;;;;;13.60;99.90;;;;;;5089299;28;19947;-87
2021/03/07 14:09:38;;;;;;;;;;;13.90;99.90;;;;;;5078437;28;19995;-87
2021/03/07 14:12:03;;;;;;;;;;;14.20;99.90;;;;;;5075110;28;20699;-87
2021/03/07 14:14:29;;;;;;;;;;;14.20;99.90;;;;;;5077233;28;19913;-87
2021/03/07 14:16:55;;;;;;;;;;;14.60;99.90;;;;;;5071691;28;20624;-87
2021/03/07 14:19:20;;;;;;;;;;;14.70;99.90;;;;;;5079153;28;20284;-86
2021/03/07 14:21:46;;;;;;;;;;;14.70;99.90;;;;;;5074508;28;20402;-87
2021/03/07 14:24:11;;;;;;;;;;;14.20;99.90;;;;;;5072558;28;19919;-87
2021/03/07 14:26:37;;;;;;;;;;;13.90;99.90;;;;;;5084789;28;19924;-87